sensor_id;sensor_type;location;lat;lon;timestamp;P1;durP1;ratioP1;P2;durP2;ratioP2
59336;SDS011;45115;52.002;4.686;2022-11-15T00:01:23;57.88;;;26.67;;
59336;SDS011;45115;52.002;4.686;2022-11-15T00:04:08;61.50;;;26.30;;
59336;SDS011;45115;52.002;4.686;2022-11-15T00:06:55;60.60;;;26.73;;
59336;SDS011;45115;52.002;4.686;2022-11-15T00:09:40;59.25;;;26.35;;
59336;SDS011;45115;52.002;4.686;2022-11-15T00:12:26;68.22;;;28.02;;
59336;SDS011;45115;52.002;4.686;2022-11-15T00:15:11;57.85;;;26.30;;
59336;SDS011;45115;52.002;4.686;2022-11-15T00:17:57;61.85;;;26.15;;
59336;SDS011;45115;52.002;4.686;2022-11-15T00:20:42;72.30;;;29.17;;
59336;SDS011;45115;52.002;4.686;2022-11-15T00:23:29;65.85;;;26.90;;
59336;SDS011;45115;52.002;4.686;2022-11-15T00:26:14;61.55;;;27.50;;
59336;SDS011;45115;52.002;4.686;2022-11-15T00:29:00;64.30;;;25.60;;
59336;SDS011;45115;52.002;4.686;2022-11-15T00:31:45;63.78;;;27.05;;
59336;SDS011;45115;52.002;4.686;2022-11-15T00:34:30;73.38;;;26.55;;
59336;SDS011;45115;52.002;4.686;2022-11-15T00:37:16;55.17;;;23.52;;
59336;SDS011;45115;52.002;4.686;2022-11-15T00:40:03;67.93;;;27.27;;
59336;SDS011;45115;52.002;4.686;2022-11-15T00:42:48;63.58;;;27.30;;
59336;SDS011;45115;52.002;4.686;2022-11-15T00:45:34;58.63;;;24.63;;
59336;SDS011;45115;52.002;4.686;2022-11-15T00:48:19;68.05;;;28.23;;
59336;SDS011;45115;52.002;4.686;2022-11-15T00:51:05;61.42;;;26.52;;
59336;SDS011;45115;52.002;4.686;2022-11-15T00:53:50;65.82;;;25.67;;
59336;SDS011;45115;52.002;4.686;2022-11-15T00:56:37;69.03;;;26.67;;
59336;SDS011;45115;52.002;4.686;2022-11-15T00:59:22;64.28;;;27.52;;
59336;SDS011;45115;52.002;4.686;2022-11-15T01:02:07;74.93;;;27.90;;
59336;SDS011;45115;52.002;4.686;2022-11-15T01:04:53;62.60;;;27.33;;
59336;SDS011;45115;52.002;4.686;2022-11-15T01:07:38;75.22;;;29.25;;
59336;SDS011;45115;52.002;4.686;2022-11-15T01:10:23;70.25;;;28.60;;
59336;SDS011;45115;52.002;4.686;2022-11-15T01:13:11;70.93;;;28.42;;
59336;SDS011;45115;52.002;4.686;2022-11-15T01:15:56;79.55;;;30.00;;
59336;SDS011;45115;52.002;4.686;2022-11-15T01:18:41;65.82;;;27.02;;
59336;SDS011;45115;52.002;4.686;2022-11-15T01:21:27;78.50;;;28.60;;
59336;SDS011;45115;52.002;4.686;2022-11-15T01:24:13;72.75;;;30.65;;
59336;SDS011;45115;52.002;4.686;2022-11-15T01:26:58;87.07;;;30.02;;
59336;SDS011;45115;52.002;4.686;2022-11-15T01:29:45;74.45;;;31.33;;
59336;SDS011;45115;52.002;4.686;2022-11-15T01:32:30;74.88;;;31.13;;
59336;SDS011;45115;52.002;4.686;2022-11-15T01:35:15;76.72;;;30.13;;
59336;SDS011;45115;52.002;4.686;2022-11-15T01:38:01;77.50;;;31.45;;
59336;SDS011;45115;52.002;4.686;2022-11-15T01:40:46;81.82;;;32.33;;
59336;SDS011;45115;52.002;4.686;2022-11-15T01:43:32;82.85;;;30.98;;
59336;SDS011;45115;52.002;4.686;2022-11-15T01:46:23;75.65;;;30.98;;
59336;SDS011;45115;52.002;4.686;2022-11-15T01:49:13;82.57;;;31.70;;
59336;SDS011;45115;52.002;4.686;2022-11-15T01:52:03;75.97;;;31.77;;
59336;SDS011;45115;52.002;4.686;2022-11-15T01:54:53;68.45;;;29.00;;
59336;SDS011;45115;52.002;4.686;2022-11-15T01:57:45;79.13;;;30.90;;
59336;SDS011;45115;52.002;4.686;2022-11-15T02:00:32;69.20;;;30.75;;
59336;SDS011;45115;52.002;4.686;2022-11-15T02:03:19;69.45;;;30.20;;
59336;SDS011;45115;52.002;4.686;2022-11-15T02:06:08;69.90;;;29.65;;
59336;SDS011;45115;52.002;4.686;2022-11-15T02:08:53;75.57;;;29.95;;
59336;SDS011;45115;52.002;4.686;2022-11-15T02:11:41;72.55;;;30.90;;
59336;SDS011;45115;52.002;4.686;2022-11-15T02:14:28;69.22;;;30.45;;
59336;SDS011;45115;52.002;4.686;2022-11-15T02:17:27;72.28;;;30.33;;
59336;SDS011;45115;52.002;4.686;2022-11-15T02:23:54;71.43;;;31.02;;
59336;SDS011;45115;52.002;4.686;2022-11-15T02:30:26;76.38;;;32.67;;
59336;SDS011;45115;52.002;4.686;2022-11-15T02:36:41;71.47;;;28.30;;
59336;SDS011;45115;52.002;4.686;2022-11-15T02:39:34;66.47;;;30.75;;
59336;SDS011;45115;52.002;4.686;2022-11-15T02:42:28;75.05;;;30.23;;
59336;SDS011;45115;52.002;4.686;2022-11-15T02:45:39;72.95;;;31.05;;
59336;SDS011;45115;52.002;4.686;2022-11-15T02:48:28;78.88;;;30.65;;
59336;SDS011;45115;52.002;4.686;2022-11-15T02:51:16;74.18;;;30.65;;
59336;SDS011;45115;52.002;4.686;2022-11-15T02:54:02;70.82;;;29.80;;
59336;SDS011;45115;52.002;4.686;2022-11-15T02:56:48;65.57;;;28.98;;
59336;SDS011;45115;52.002;4.686;2022-11-15T02:59:44;64.78;;;29.63;;
59336;SDS011;45115;52.002;4.686;2022-11-15T03:02:55;73.38;;;30.20;;
59336;SDS011;45115;52.002;4.686;2022-11-15T03:05:51;71.38;;;29.88;;
59336;SDS011;45115;52.002;4.686;2022-11-15T03:08:47;64.53;;;29.17;;
59336;SDS011;45115;52.002;4.686;2022-11-15T03:11:46;68.85;;;30.23;;
59336;SDS011;45115;52.002;4.686;2022-11-15T03:14:40;64.45;;;29.55;;
59336;SDS011;45115;52.002;4.686;2022-11-15T03:17:37;64.97;;;29.33;;
59336;SDS011;45115;52.002;4.686;2022-11-15T03:20:27;59.78;;;27.10;;
59336;SDS011;45115;52.002;4.686;2022-11-15T03:23:15;62.03;;;27.17;;
59336;SDS011;45115;52.002;4.686;2022-11-15T03:26:03;60.55;;;28.33;;
59336;SDS011;45115;52.002;4.686;2022-11-15T03:28:52;63.30;;;27.90;;
59336;SDS011;45115;52.002;4.686;2022-11-15T03:31:41;57.13;;;27.38;;
59336;SDS011;45115;52.002;4.686;2022-11-15T03:34:34;63.53;;;28.13;;
59336;SDS011;45115;52.002;4.686;2022-11-15T03:37:27;55.28;;;26.02;;
59336;SDS011;45115;52.002;4.686;2022-11-15T03:40:15;54.55;;;26.30;;
59336;SDS011;45115;52.002;4.686;2022-11-15T03:43:04;53.00;;;25.65;;
59336;SDS011;45115;52.002;4.686;2022-11-15T03:45:53;50.53;;;26.75;;
59336;SDS011;45115;52.002;4.686;2022-11-15T03:48:41;55.70;;;27.50;;
59336;SDS011;45115;52.002;4.686;2022-11-15T03:51:31;47.88;;;25.33;;
59336;SDS011;45115;52.002;4.686;2022-11-15T03:54:18;52.50;;;26.13;;
59336;SDS011;45115;52.002;4.686;2022-11-15T03:57:03;47.67;;;24.88;;
59336;SDS011;45115;52.002;4.686;2022-11-15T03:59:48;46.22;;;24.05;;
59336;SDS011;45115;52.002;4.686;2022-11-15T04:02:34;49.45;;;25.00;;
59336;SDS011;45115;52.002;4.686;2022-11-15T04:05:19;44.90;;;23.80;;
59336;SDS011;45115;52.002;4.686;2022-11-15T04:08:04;44.97;;;22.20;;
59336;SDS011;45115;52.002;4.686;2022-11-15T04:10:51;46.17;;;23.15;;
59336;SDS011;45115;52.002;4.686;2022-11-15T04:13:37;42.17;;;21.45;;
59336;SDS011;45115;52.002;4.686;2022-11-15T04:16:22;44.90;;;22.63;;
59336;SDS011;45115;52.002;4.686;2022-11-15T04:19:07;41.45;;;21.08;;
59336;SDS011;45115;52.002;4.686;2022-11-15T04:22:10;40.25;;;20.73;;
59336;SDS011;45115;52.002;4.686;2022-11-15T04:25:13;38.10;;;21.05;;
59336;SDS011;45115;52.002;4.686;2022-11-15T04:28:00;37.97;;;20.52;;
59336;SDS011;45115;52.002;4.686;2022-11-15T04:30:46;40.15;;;21.73;;
59336;SDS011;45115;52.002;4.686;2022-11-15T04:33:31;41.85;;;20.23;;
59336;SDS011;45115;52.002;4.686;2022-11-15T04:36:16;36.10;;;20.42;;
59336;SDS011;45115;52.002;4.686;2022-11-15T04:39:19;42.15;;;20.63;;
59336;SDS011;45115;52.002;4.686;2022-11-15T04:42:04;38.33;;;19.45;;
59336;SDS011;45115;52.002;4.686;2022-11-15T04:44:51;39.03;;;19.65;;
59336;SDS011;45115;52.002;4.686;2022-11-15T04:47:36;35.63;;;18.75;;
59336;SDS011;45115;52.002;4.686;2022-11-15T04:50:22;39.08;;;19.80;;
59336;SDS011;45115;52.002;4.686;2022-11-15T04:53:07;39.13;;;18.77;;
59336;SDS011;45115;52.002;4.686;2022-11-15T04:55:52;36.53;;;19.13;;
59336;SDS011;45115;52.002;4.686;2022-11-15T04:58:37;37.78;;;19.70;;
59336;SDS011;45115;52.002;4.686;2022-11-15T05:01:24;39.83;;;19.13;;
59336;SDS011;45115;52.002;4.686;2022-11-15T05:04:09;34.10;;;17.70;;
59336;SDS011;45115;52.002;4.686;2022-11-15T05:07:02;35.85;;;18.63;;
59336;SDS011;45115;52.002;4.686;2022-11-15T05:09:48;39.15;;;18.10;;
59336;SDS011;45115;52.002;4.686;2022-11-15T05:12:33;35.20;;;16.30;;
59336;SDS011;45115;52.002;4.686;2022-11-15T05:15:19;29.80;;;15.38;;
59336;SDS011;45115;52.002;4.686;2022-11-15T05:18:05;33.47;;;16.80;;
59336;SDS011;45115;52.002;4.686;2022-11-15T05:20:50;31.50;;;15.48;;
59336;SDS011;45115;52.002;4.686;2022-11-15T05:23:36;30.33;;;15.25;;
59336;SDS011;45115;52.002;4.686;2022-11-15T05:26:21;28.27;;;15.35;;
59336;SDS011;45115;52.002;4.686;2022-11-15T05:29:08;31.60;;;15.23;;
59336;SDS011;45115;52.002;4.686;2022-11-15T05:31:55;30.90;;;14.68;;
59336;SDS011;45115;52.002;4.686;2022-11-15T05:34:41;29.58;;;15.13;;
59336;SDS011;45115;52.002;4.686;2022-11-15T05:37:26;28.65;;;14.80;;
59336;SDS011;45115;52.002;4.686;2022-11-15T05:40:13;29.75;;;14.20;;
59336;SDS011;45115;52.002;4.686;2022-11-15T05:42:59;26.55;;;13.48;;
59336;SDS011;45115;52.002;4.686;2022-11-15T05:45:47;23.10;;;12.75;;
59336;SDS011;45115;52.002;4.686;2022-11-15T05:48:33;26.88;;;13.00;;
59336;SDS011;45115;52.002;4.686;2022-11-15T05:51:22;24.23;;;12.80;;
59336;SDS011;45115;52.002;4.686;2022-11-15T05:54:08;23.75;;;11.45;;
59336;SDS011;45115;52.002;4.686;2022-11-15T05:56:55;27.00;;;13.10;;
59336;SDS011;45115;52.002;4.686;2022-11-15T05:59:40;26.90;;;12.07;;
59336;SDS011;45115;52.002;4.686;2022-11-15T06:02:26;23.27;;;11.02;;
59336;SDS011;45115;52.002;4.686;2022-11-15T06:05:12;24.77;;;10.93;;
59336;SDS011;45115;52.002;4.686;2022-11-15T06:07:59;21.88;;;10.95;;
59336;SDS011;45115;52.002;4.686;2022-11-15T06:10:44;22.67;;;10.95;;
59336;SDS011;45115;52.002;4.686;2022-11-15T06:13:29;21.83;;;10.25;;
59336;SDS011;45115;52.002;4.686;2022-11-15T06:16:15;28.20;;;11.35;;
59336;SDS011;45115;52.002;4.686;2022-11-15T06:19:01;23.55;;;10.55;;
59336;SDS011;45115;52.002;4.686;2022-11-15T06:21:46;18.77;;;9.88;;
59336;SDS011;45115;52.002;4.686;2022-11-15T06:24:33;22.08;;;10.02;;
59336;SDS011;45115;52.002;4.686;2022-11-15T06:27:18;19.42;;;9.90;;
59336;SDS011;45115;52.002;4.686;2022-11-15T06:30:04;23.42;;;10.73;;
59336;SDS011;45115;52.002;4.686;2022-11-15T06:32:50;24.25;;;11.18;;
59336;SDS011;45115;52.002;4.686;2022-11-15T06:35:35;20.13;;;9.25;;
59336;SDS011;45115;52.002;4.686;2022-11-15T06:38:21;20.08;;;9.00;;
59336;SDS011;45115;52.002;4.686;2022-11-15T06:41:08;18.52;;;9.18;;
59336;SDS011;45115;52.002;4.686;2022-11-15T06:43:54;22.15;;;9.13;;
59336;SDS011;45115;52.002;4.686;2022-11-15T06:46:39;19.08;;;8.85;;
59336;SDS011;45115;52.002;4.686;2022-11-15T06:49:24;20.70;;;9.02;;
59336;SDS011;45115;52.002;4.686;2022-11-15T06:52:10;18.15;;;8.90;;
59336;SDS011;45115;52.002;4.686;2022-11-15T06:54:55;19.77;;;9.45;;
59336;SDS011;45115;52.002;4.686;2022-11-15T06:57:47;17.85;;;8.98;;
59336;SDS011;45115;52.002;4.686;2022-11-15T07:00:32;19.33;;;9.50;;
59336;SDS011;45115;52.002;4.686;2022-11-15T07:03:18;17.80;;;8.18;;
59336;SDS011;45115;52.002;4.686;2022-11-15T07:06:03;21.13;;;9.07;;
59336;SDS011;45115;52.002;4.686;2022-11-15T07:08:48;18.05;;;9.05;;
59336;SDS011;45115;52.002;4.686;2022-11-15T07:11:34;17.30;;;8.75;;
59336;SDS011;45115;52.002;4.686;2022-11-15T07:14:21;19.95;;;9.68;;
59336;SDS011;45115;52.002;4.686;2022-11-15T07:17:06;18.98;;;8.85;;
59336;SDS011;45115;52.002;4.686;2022-11-15T07:19:51;19.77;;;8.43;;
59336;SDS011;45115;52.002;4.686;2022-11-15T07:22:37;18.02;;;8.52;;
59336;SDS011;45115;52.002;4.686;2022-11-15T07:25:22;19.27;;;8.18;;
59336;SDS011;45115;52.002;4.686;2022-11-15T07:28:07;15.43;;;7.25;;
59336;SDS011;45115;52.002;4.686;2022-11-15T07:30:54;16.70;;;6.85;;
59336;SDS011;45115;52.002;4.686;2022-11-15T07:33:39;16.67;;;7.25;;
59336;SDS011;45115;52.002;4.686;2022-11-15T07:36:24;18.05;;;7.30;;
59336;SDS011;45115;52.002;4.686;2022-11-15T07:39:09;16.15;;;6.47;;
59336;SDS011;45115;52.002;4.686;2022-11-15T07:41:55;13.52;;;6.80;;
59336;SDS011;45115;52.002;4.686;2022-11-15T07:44:54;16.35;;;8.35;;
59336;SDS011;45115;52.002;4.686;2022-11-15T07:47:41;22.23;;;10.25;;
59336;SDS011;45115;52.002;4.686;2022-11-15T07:50:31;23.00;;;11.02;;
59336;SDS011;45115;52.002;4.686;2022-11-15T07:53:16;25.35;;;11.50;;
59336;SDS011;45115;52.002;4.686;2022-11-15T07:56:02;26.85;;;12.48;;
59336;SDS011;45115;52.002;4.686;2022-11-15T07:58:47;27.33;;;13.10;;
59336;SDS011;45115;52.002;4.686;2022-11-15T08:01:33;23.50;;;12.27;;
59336;SDS011;45115;52.002;4.686;2022-11-15T08:04:20;24.25;;;11.82;;
59336;SDS011;45115;52.002;4.686;2022-11-15T08:07:05;25.65;;;12.45;;
59336;SDS011;45115;52.002;4.686;2022-11-15T08:09:50;25.50;;;12.43;;
59336;SDS011;45115;52.002;4.686;2022-11-15T08:12:36;23.15;;;11.38;;
59336;SDS011;45115;52.002;4.686;2022-11-15T08:15:21;25.00;;;11.82;;
59336;SDS011;45115;52.002;4.686;2022-11-15T08:18:08;20.90;;;11.75;;
59336;SDS011;45115;52.002;4.686;2022-11-15T08:20:59;22.75;;;12.20;;
59336;SDS011;45115;52.002;4.686;2022-11-15T08:23:45;27.02;;;10.88;;
59336;SDS011;45115;52.002;4.686;2022-11-15T08:26:31;25.83;;;11.82;;
59336;SDS011;45115;52.002;4.686;2022-11-15T08:29:16;22.70;;;11.15;;
59336;SDS011;45115;52.002;4.686;2022-11-15T08:32:01;23.48;;;10.73;;
59336;SDS011;45115;52.002;4.686;2022-11-15T08:34:47;23.05;;;10.73;;
59336;SDS011;45115;52.002;4.686;2022-11-15T08:37:33;21.58;;;10.82;;
59336;SDS011;45115;52.002;4.686;2022-11-15T08:40:19;18.42;;;9.73;;
59336;SDS011;45115;52.002;4.686;2022-11-15T08:43:04;20.17;;;9.30;;
59336;SDS011;45115;52.002;4.686;2022-11-15T08:45:49;24.65;;;9.45;;
59336;SDS011;45115;52.002;4.686;2022-11-15T08:48:35;18.50;;;8.75;;
59336;SDS011;45115;52.002;4.686;2022-11-15T08:51:20;21.08;;;9.27;;
59336;SDS011;45115;52.002;4.686;2022-11-15T08:54:07;18.98;;;8.85;;
59336;SDS011;45115;52.002;4.686;2022-11-15T08:56:53;22.02;;;9.80;;
59336;SDS011;45115;52.002;4.686;2022-11-15T08:59:38;21.52;;;9.82;;
59336;SDS011;45115;52.002;4.686;2022-11-15T09:02:24;16.25;;;8.18;;
59336;SDS011;45115;52.002;4.686;2022-11-15T09:05:09;15.65;;;8.07;;
59336;SDS011;45115;52.002;4.686;2022-11-15T09:07:54;20.48;;;8.30;;
59336;SDS011;45115;52.002;4.686;2022-11-15T09:10:41;19.83;;;8.50;;
59336;SDS011;45115;52.002;4.686;2022-11-15T09:13:27;16.08;;;7.60;;
59336;SDS011;45115;52.002;4.686;2022-11-15T09:16:12;16.30;;;7.70;;
59336;SDS011;45115;52.002;4.686;2022-11-15T09:18:59;18.48;;;7.00;;
59336;SDS011;45115;52.002;4.686;2022-11-15T09:21:44;15.63;;;7.18;;
59336;SDS011;45115;52.002;4.686;2022-11-15T09:24:30;17.17;;;7.22;;
59336;SDS011;45115;52.002;4.686;2022-11-15T09:27:16;19.30;;;7.40;;
59336;SDS011;45115;52.002;4.686;2022-11-15T09:30:02;16.33;;;7.57;;
59336;SDS011;45115;52.002;4.686;2022-11-15T09:32:47;19.98;;;7.72;;
59336;SDS011;45115;52.002;4.686;2022-11-15T09:35:33;15.15;;;7.03;;
59336;SDS011;45115;52.002;4.686;2022-11-15T09:38:18;13.85;;;6.45;;
59336;SDS011;45115;52.002;4.686;2022-11-15T09:41:17;12.90;;;6.82;;
59336;SDS011;45115;52.002;4.686;2022-11-15T09:44:21;15.05;;;6.22;;
59336;SDS011;45115;52.002;4.686;2022-11-15T09:47:30;12.77;;;5.97;;
59336;SDS011;45115;52.002;4.686;2022-11-15T09:50:36;11.82;;;5.97;;
59336;SDS011;45115;52.002;4.686;2022-11-15T09:53:09;12.07;;;5.57;;
59336;SDS011;45115;52.002;4.686;2022-11-15T09:55:47;11.38;;;5.18;;
59336;SDS011;45115;52.002;4.686;2022-11-15T09:58:24;10.95;;;5.47;;
59336;SDS011;45115;52.002;4.686;2022-11-15T10:01:00;10.70;;;5.10;;
59336;SDS011;45115;52.002;4.686;2022-11-15T10:03:33;12.63;;;5.13;;
59336;SDS011;45115;52.002;4.686;2022-11-15T10:06:04;12.10;;;5.07;;
59336;SDS011;45115;52.002;4.686;2022-11-15T10:08:46;11.48;;;4.93;;
59336;SDS011;45115;52.002;4.686;2022-11-15T10:11:18;9.05;;;4.80;;
59336;SDS011;45115;52.002;4.686;2022-11-15T10:13:47;11.52;;;4.88;;
59336;SDS011;45115;52.002;4.686;2022-11-15T10:19:30;10.07;;;5.00;;
59336;SDS011;45115;52.002;4.686;2022-11-15T10:22:08;8.18;;;4.38;;
59336;SDS011;45115;52.002;4.686;2022-11-15T10:24:45;9.50;;;4.90;;
59336;SDS011;45115;52.002;4.686;2022-11-15T10:27:13;13.57;;;5.20;;
59336;SDS011;45115;52.002;4.686;2022-11-15T10:29:42;10.07;;;4.20;;
59336;SDS011;45115;52.002;4.686;2022-11-15T10:32:12;10.27;;;4.05;;
59336;SDS011;45115;52.002;4.686;2022-11-15T10:34:40;10.20;;;3.88;;
59336;SDS011;45115;52.002;4.686;2022-11-15T10:37:07;10.50;;;4.20;;
59336;SDS011;45115;52.002;4.686;2022-11-15T10:39:34;8.18;;;3.92;;
59336;SDS011;45115;52.002;4.686;2022-11-15T10:42:14;8.32;;;3.83;;
59336;SDS011;45115;52.002;4.686;2022-11-15T10:44:43;10.63;;;3.80;;
59336;SDS011;45115;52.002;4.686;2022-11-15T10:47:21;6.28;;;3.55;;
59336;SDS011;45115;52.002;4.686;2022-11-15T10:49:58;8.02;;;3.92;;
59336;SDS011;45115;52.002;4.686;2022-11-15T10:52:26;7.15;;;3.50;;
59336;SDS011;45115;52.002;4.686;2022-11-15T10:54:56;9.18;;;3.88;;
59336;SDS011;45115;52.002;4.686;2022-11-15T10:57:27;8.52;;;3.85;;
59336;SDS011;45115;52.002;4.686;2022-11-15T10:59:57;7.40;;;3.63;;
59336;SDS011;45115;52.002;4.686;2022-11-15T11:02:29;7.13;;;3.20;;
59336;SDS011;45115;52.002;4.686;2022-11-15T11:04:58;6.80;;;2.97;;
59336;SDS011;45115;52.002;4.686;2022-11-15T11:07:26;12.48;;;3.97;;
59336;SDS011;45115;52.002;4.686;2022-11-15T11:09:58;6.65;;;3.42;;
59336;SDS011;45115;52.002;4.686;2022-11-15T11:12:27;6.35;;;3.35;;
59336;SDS011;45115;52.002;4.686;2022-11-15T11:14:57;6.78;;;3.30;;
59336;SDS011;45115;52.002;4.686;2022-11-15T11:17:28;7.72;;;3.50;;
59336;SDS011;45115;52.002;4.686;2022-11-15T11:20:05;8.63;;;3.30;;
59336;SDS011;45115;52.002;4.686;2022-11-15T11:22:38;7.38;;;3.08;;
59336;SDS011;45115;52.002;4.686;2022-11-15T11:25:19;7.10;;;3.00;;
59336;SDS011;45115;52.002;4.686;2022-11-15T11:28:14;5.65;;;2.83;;
59336;SDS011;45115;52.002;4.686;2022-11-15T11:30:55;8.07;;;2.90;;
59336;SDS011;45115;52.002;4.686;2022-11-15T11:33:32;6.60;;;3.05;;
59336;SDS011;45115;52.002;4.686;2022-11-15T11:36:09;7.20;;;2.97;;
59336;SDS011;45115;52.002;4.686;2022-11-15T11:38:49;5.63;;;2.63;;
59336;SDS011;45115;52.002;4.686;2022-11-15T11:41:40;5.85;;;2.90;;
59336;SDS011;45115;52.002;4.686;2022-11-15T11:44:18;6.18;;;2.97;;
59336;SDS011;45115;52.002;4.686;2022-11-15T11:46:53;5.43;;;2.65;;
59336;SDS011;45115;52.002;4.686;2022-11-15T11:49:25;7.63;;;3.15;;
59336;SDS011;45115;52.002;4.686;2022-11-15T11:52:00;6.47;;;3.10;;
59336;SDS011;45115;52.002;4.686;2022-11-15T11:54:31;9.13;;;2.85;;
59336;SDS011;45115;52.002;4.686;2022-11-15T11:57:04;6.70;;;2.72;;
59336;SDS011;45115;52.002;4.686;2022-11-15T11:59:37;6.15;;;2.67;;
59336;SDS011;45115;52.002;4.686;2022-11-15T12:02:11;5.55;;;2.60;;
59336;SDS011;45115;52.002;4.686;2022-11-15T12:04:46;5.38;;;2.63;;
59336;SDS011;45115;52.002;4.686;2022-11-15T12:07:17;5.68;;;2.63;;
59336;SDS011;45115;52.002;4.686;2022-11-15T12:09:52;6.72;;;2.25;;
59336;SDS011;45115;52.002;4.686;2022-11-15T12:12:31;5.78;;;2.47;;
59336;SDS011;45115;52.002;4.686;2022-11-15T12:15:09;7.38;;;2.67;;
59336;SDS011;45115;52.002;4.686;2022-11-15T12:17:40;4.97;;;2.33;;
59336;SDS011;45115;52.002;4.686;2022-11-15T12:20:15;6.15;;;2.30;;
59336;SDS011;45115;52.002;4.686;2022-11-15T12:22:45;5.88;;;2.67;;
59336;SDS011;45115;52.002;4.686;2022-11-15T12:25:17;7.50;;;2.40;;
59336;SDS011;45115;52.002;4.686;2022-11-15T12:27:48;6.78;;;2.00;;
59336;SDS011;45115;52.002;4.686;2022-11-15T12:30:17;5.95;;;2.00;;
59336;SDS011;45115;52.002;4.686;2022-11-15T12:32:50;3.83;;;2.05;;
59336;SDS011;45115;52.002;4.686;2022-11-15T12:35:23;4.97;;;2.03;;
59336;SDS011;45115;52.002;4.686;2022-11-15T12:37:53;6.30;;;2.00;;
59336;SDS011;45115;52.002;4.686;2022-11-15T12:40:24;4.85;;;1.88;;
59336;SDS011;45115;52.002;4.686;2022-11-15T12:43:04;5.47;;;1.93;;
59336;SDS011;45115;52.002;4.686;2022-11-15T12:45:53;4.70;;;1.90;;
59336;SDS011;45115;52.002;4.686;2022-11-15T12:54:49;7.90;;;1.90;;
59336;SDS011;45115;52.002;4.686;2022-11-15T12:57:34;7.45;;;2.55;;
59336;SDS011;45115;52.002;4.686;2022-11-15T13:03:27;6.07;;;2.17;;
59336;SDS011;45115;52.002;4.686;2022-11-15T13:05:59;7.22;;;2.08;;
59336;SDS011;45115;52.002;4.686;2022-11-15T13:08:37;4.65;;;2.10;;
59336;SDS011;45115;52.002;4.686;2022-11-15T13:20:11;7.60;;;1.92;;
59336;SDS011;45115;52.002;4.686;2022-11-15T13:22:45;4.82;;;1.95;;
59336;SDS011;45115;52.002;4.686;2022-11-15T13:25:31;6.72;;;2.65;;
59336;SDS011;45115;52.002;4.686;2022-11-15T13:28:18;6.28;;;2.10;;
59336;SDS011;45115;52.002;4.686;2022-11-15T13:30:49;4.97;;;2.05;;
59336;SDS011;45115;52.002;4.686;2022-11-15T13:33:18;6.22;;;2.35;;
59336;SDS011;45115;52.002;4.686;2022-11-15T13:35:47;5.55;;;1.70;;
59336;SDS011;45115;52.002;4.686;2022-11-15T13:38:18;4.82;;;2.10;;
59336;SDS011;45115;52.002;4.686;2022-11-15T13:40:53;4.22;;;1.63;;
59336;SDS011;45115;52.002;4.686;2022-11-15T13:43:25;5.53;;;2.30;;
59336;SDS011;45115;52.002;4.686;2022-11-15T13:46:03;4.38;;;1.73;;
59336;SDS011;45115;52.002;4.686;2022-11-15T13:48:31;6.72;;;1.73;;
59336;SDS011;45115;52.002;4.686;2022-11-15T13:50:58;8.60;;;3.58;;
59336;SDS011;45115;52.002;4.686;2022-11-15T13:53:26;5.38;;;1.73;;
59336;SDS011;45115;52.002;4.686;2022-11-15T13:55:54;4.10;;;1.65;;
59336;SDS011;45115;52.002;4.686;2022-11-15T13:58:23;4.17;;;2.23;;
59336;SDS011;45115;52.002;4.686;2022-11-15T14:00:50;4.00;;;1.95;;
59336;SDS011;45115;52.002;4.686;2022-11-15T14:03:25;5.20;;;1.88;;
59336;SDS011;45115;52.002;4.686;2022-11-15T14:06:03;4.63;;;1.70;;
59336;SDS011;45115;52.002;4.686;2022-11-15T14:08:37;4.60;;;1.90;;
59336;SDS011;45115;52.002;4.686;2022-11-15T14:11:07;3.85;;;1.73;;
59336;SDS011;45115;52.002;4.686;2022-11-15T14:13:35;4.43;;;1.90;;
59336;SDS011;45115;52.002;4.686;2022-11-15T14:16:12;5.05;;;1.73;;
59336;SDS011;45115;52.002;4.686;2022-11-15T14:18:41;5.10;;;1.67;;
59336;SDS011;45115;52.002;4.686;2022-11-15T14:21:10;3.30;;;1.50;;
59336;SDS011;45115;52.002;4.686;2022-11-15T14:23:37;2.83;;;1.90;;
59336;SDS011;45115;52.002;4.686;2022-11-15T14:26:10;4.90;;;2.03;;
59336;SDS011;45115;52.002;4.686;2022-11-15T14:28:52;4.00;;;1.75;;
59336;SDS011;45115;52.002;4.686;2022-11-15T14:31:18;4.35;;;1.67;;
59336;SDS011;45115;52.002;4.686;2022-11-15T14:33:46;4.55;;;1.40;;
59336;SDS011;45115;52.002;4.686;2022-11-15T14:36:14;4.55;;;1.88;;
59336;SDS011;45115;52.002;4.686;2022-11-15T14:38:41;2.88;;;1.63;;
59336;SDS011;45115;52.002;4.686;2022-11-15T14:41:11;4.72;;;1.98;;
59336;SDS011;45115;52.002;4.686;2022-11-15T14:43:47;3.83;;;1.70;;
59336;SDS011;45115;52.002;4.686;2022-11-15T14:46:14;3.95;;;1.80;;
59336;SDS011;45115;52.002;4.686;2022-11-15T14:48:40;2.08;;;1.50;;
59336;SDS011;45115;52.002;4.686;2022-11-15T14:51:14;5.13;;;1.75;;
59336;SDS011;45115;52.002;4.686;2022-11-15T14:53:43;2.33;;;1.83;;
59336;SDS011;45115;52.002;4.686;2022-11-15T14:56:12;6.45;;;1.70;;
59336;SDS011;45115;52.002;4.686;2022-11-15T14:58:40;6.57;;;1.95;;
59336;SDS011;45115;52.002;4.686;2022-11-15T15:01:10;8.15;;;2.13;;
59336;SDS011;45115;52.002;4.686;2022-11-15T15:03:40;7.75;;;2.10;;
59336;SDS011;45115;52.002;4.686;2022-11-15T15:06:09;4.15;;;1.80;;
59336;SDS011;45115;52.002;4.686;2022-11-15T15:08:37;3.58;;;1.58;;
59336;SDS011;45115;52.002;4.686;2022-11-15T15:11:06;4.65;;;1.75;;
59336;SDS011;45115;52.002;4.686;2022-11-15T15:13:38;3.42;;;1.85;;
59336;SDS011;45115;52.002;4.686;2022-11-15T15:16:04;4.35;;;2.10;;
59336;SDS011;45115;52.002;4.686;2022-11-15T15:18:31;4.30;;;2.53;;
59336;SDS011;45115;52.002;4.686;2022-11-15T15:20:58;4.05;;;2.05;;
59336;SDS011;45115;52.002;4.686;2022-11-15T15:23:28;7.57;;;2.30;;
59336;SDS011;45115;52.002;4.686;2022-11-15T15:25:56;4.05;;;1.95;;
59336;SDS011;45115;52.002;4.686;2022-11-15T15:28:23;4.88;;;1.95;;
59336;SDS011;45115;52.002;4.686;2022-11-15T15:30:51;3.65;;;1.55;;
59336;SDS011;45115;52.002;4.686;2022-11-15T15:33:18;6.43;;;2.15;;
59336;SDS011;45115;52.002;4.686;2022-11-15T15:35:44;3.55;;;1.98;;
59336;SDS011;45115;52.002;4.686;2022-11-15T15:38:11;4.13;;;2.30;;
59336;SDS011;45115;52.002;4.686;2022-11-15T15:40:38;7.05;;;2.30;;
59336;SDS011;45115;52.002;4.686;2022-11-15T15:43:05;4.93;;;2.20;;
59336;SDS011;45115;52.002;4.686;2022-11-15T15:45:34;3.78;;;2.17;;
59336;SDS011;45115;52.002;4.686;2022-11-15T15:48:04;6.78;;;2.80;;
59336;SDS011;45115;52.002;4.686;2022-11-15T15:50:32;6.57;;;2.95;;
59336;SDS011;45115;52.002;4.686;2022-11-15T15:53:00;6.88;;;2.45;;
59336;SDS011;45115;52.002;4.686;2022-11-15T15:55:28;5.05;;;2.58;;
59336;SDS011;45115;52.002;4.686;2022-11-15T15:57:55;4.95;;;2.47;;
59336;SDS011;45115;52.002;4.686;2022-11-15T16:00:22;6.20;;;2.40;;
59336;SDS011;45115;52.002;4.686;2022-11-15T16:02:50;6.70;;;2.22;;
59336;SDS011;45115;52.002;4.686;2022-11-15T16:05:18;4.00;;;2.22;;
59336;SDS011;45115;52.002;4.686;2022-11-15T16:07:45;6.95;;;2.47;;
59336;SDS011;45115;52.002;4.686;2022-11-15T16:10:16;5.95;;;2.75;;
59336;SDS011;45115;52.002;4.686;2022-11-15T16:12:46;10.10;;;2.83;;
59336;SDS011;45115;52.002;4.686;2022-11-15T16:15:13;7.60;;;2.70;;
59336;SDS011;45115;52.002;4.686;2022-11-15T16:17:42;7.30;;;2.90;;
59336;SDS011;45115;52.002;4.686;2022-11-15T16:20:15;4.55;;;2.50;;
59336;SDS011;45115;52.002;4.686;2022-11-15T16:22:55;4.60;;;2.58;;
59336;SDS011;45115;52.002;4.686;2022-11-15T16:25:22;6.80;;;3.13;;
59336;SDS011;45115;52.002;4.686;2022-11-15T16:27:49;7.78;;;2.75;;